createdAt,value
2022-08-07T00:00:52.808Z,4.90
2022-08-07T00:05:48.596Z,5.00
2022-08-07T00:10:48.084Z,4.30
2022-08-07T00:15:52.571Z,3.67
2022-08-07T00:20:46.385Z,4.68
2022-08-07T00:25:41.733Z,5.10
2022-08-07T00:30:35.925Z,4.97
2022-08-07T00:35:30.691Z,4.53
2022-08-07T00:40:39.814Z,4.00
2022-08-07T00:45:34.611Z,4.70
2022-08-07T00:50:50.461Z,5.07
2022-08-07T00:56:03.351Z,4.50
2022-08-07T01:00:57.978Z,4.80
2022-08-07T01:05:53.727Z,5.15
2022-08-07T01:10:56.299Z,4.60
2022-08-07T01:16:04.981Z,4.70
2022-08-07T01:21:22.464Z,5.60
2022-08-07T01:26:22.509Z,4.15
2022-08-07T01:31:20.821Z,5.00
2022-08-07T01:36:16.901Z,4.15
2022-08-07T01:41:13.618Z,4.28
2022-08-07T01:46:22.291Z,4.40
2022-08-07T01:52:02.399Z,4.07
2022-08-07T01:56:53.783Z,3.00
2022-08-07T02:02:11.287Z,4.15
2022-08-07T02:07:36.157Z,3.60
2022-08-07T02:12:46.585Z,3.83
2022-08-07T02:17:51.868Z,3.58
2022-08-07T02:22:46.491Z,3.67
2022-08-07T02:27:41.186Z,6.07
2022-08-07T02:32:38.638Z,3.92
2022-08-07T02:37:36.552Z,5.05
2022-08-07T02:42:39.480Z,5.00
2022-08-07T02:47:45.292Z,4.70
2022-08-07T02:52:49.029Z,3.65
2022-08-07T02:57:47.024Z,4.15
2022-08-07T03:02:54.444Z,4.00
2022-08-07T03:08:07.370Z,4.13
2022-08-07T03:13:07.063Z,3.72
2022-08-07T03:18:01.851Z,5.90
2022-08-07T03:22:56.496Z,5.10
2022-08-07T03:27:59.025Z,3.80
2022-08-07T03:32:59.154Z,4.32
2022-08-07T03:38:04.745Z,4.20
2022-08-07T03:42:58.899Z,4.63
2022-08-07T03:47:57.622Z,5.25
2022-08-07T03:52:53.688Z,5.25
2022-08-07T03:58:33.518Z,5.10
2022-08-07T04:03:04.983Z,5.15
2022-08-07T04:08:05.274Z,5.07
2022-08-07T04:12:59.480Z,4.97
2022-08-07T04:18:30.852Z,5.45
2022-08-07T04:23:09.753Z,4.63
2022-08-07T04:28:14.799Z,4.38
2022-08-07T04:33:13.888Z,6.20
2022-08-07T04:38:13.128Z,5.53
2022-08-07T04:43:10.787Z,4.22
2022-08-07T04:48:44.500Z,4.35
2022-08-07T04:54:05.382Z,4.45
2022-08-07T05:00:11.429Z,4.15
2022-08-07T05:05:01.748Z,4.78
2022-08-07T05:10:00.742Z,3.47
2022-08-07T05:15:23.129Z,3.60
2022-08-07T05:20:27.861Z,3.03
2022-08-07T05:26:11.084Z,3.30
2022-08-07T05:30:44.006Z,3.75
2022-08-07T05:35:42.476Z,3.53
2022-08-07T05:40:42.761Z,3.50
2022-08-07T05:45:48.473Z,2.75
2022-08-07T05:50:47.707Z,3.47
2022-08-07T05:56:03.527Z,2.55
2022-08-07T06:01:05.131Z,2.78
2022-08-07T06:06:01.735Z,2.17
2022-08-07T06:10:55.498Z,2.42
2022-08-07T06:15:50.387Z,2.75
2022-08-07T06:22:16.733Z,3.08
2022-08-07T06:26:05.556Z,4.30
2022-08-07T06:31:02.419Z,4.50
2022-08-07T06:36:13.300Z,4.55
2022-08-07T06:41:18.677Z,4.72
2022-08-07T06:46:35.233Z,4.68
2022-08-07T06:51:33.528Z,4.70
2022-08-07T06:56:48.512Z,5.50
2022-08-07T07:01:50.679Z,5.57
2022-08-07T07:07:00.507Z,5.80
2022-08-07T07:12:19.567Z,4.93
2022-08-07T07:17:21.461Z,6.03
2022-08-07T07:22:36.364Z,5.25
2022-08-07T07:27:35.236Z,5.65
2022-08-07T07:32:30.550Z,5.57
2022-08-07T07:37:49.482Z,6.15
2022-08-07T07:42:37.929Z,5.30
2022-08-07T07:47:42.699Z,5.90
2022-08-07T07:52:47.448Z,5.28
2022-08-07T07:57:52.223Z,5.20
2022-08-07T08:03:04.816Z,6.00
2022-08-07T08:08:01.229Z,6.22
2022-08-07T08:12:59.773Z,5.88
2022-08-07T08:17:58.112Z,6.43
2022-08-07T08:28:06.868Z,5.75
2022-08-07T08:33:04.788Z,4.70
2022-08-07T08:38:04.572Z,5.35
2022-08-07T08:43:19.254Z,6.22
2022-08-07T08:48:36.072Z,6.10
2022-08-07T08:53:51.157Z,6.47
2022-08-07T08:59:12.912Z,6.65
2022-08-07T09:04:35.481Z,7.43
2022-08-07T09:10:05.755Z,7.85
2022-08-07T09:14:59.753Z,7.07
2022-08-07T09:20:57.976Z,5.97
2022-08-07T09:26:13.045Z,5.38
2022-08-07T09:31:38.581Z,4.22
2022-08-07T09:37:13.691Z,4.47
2022-08-07T09:42:33.707Z,5.60
2022-08-07T09:48:01.244Z,6.03
2022-08-07T09:53:17.203Z,6.28
2022-08-07T09:58:32.601Z,5.22
2022-08-07T10:04:06.452Z,5.40
2022-08-07T10:09:15.770Z,4.38
2022-08-07T10:14:37.112Z,5.15
2022-08-07T10:20:13.103Z,6.13
2022-08-07T10:25:42.173Z,6.10
2022-08-07T10:30:58.968Z,5.72
2022-08-07T10:35:55.614Z,7.60
2022-08-07T10:41:05.976Z,6.45
2022-08-07T10:46:02.092Z,6.47
2022-08-07T10:51:38.898Z,6.88
2022-08-07T10:57:04.564Z,8.23
2022-08-07T11:02:05.288Z,9.00
2022-08-07T11:07:56.989Z,8.75
2022-08-07T11:12:43.415Z,8.52
2022-08-07T11:17:53.987Z,8.80
2022-08-07T11:22:56.239Z,8.18
2022-08-07T11:28:21.559Z,7.50
2022-08-07T11:33:58.647Z,8.15
2022-08-07T11:39:02.588Z,6.40
2022-08-07T11:44:32.276Z,6.07
2022-08-07T11:50:30.471Z,5.45
2022-08-07T11:56:25.442Z,3.80
2022-08-07T12:01:00.188Z,4.18
2022-08-07T12:06:37.358Z,3.22
2022-08-07T12:12:12.470Z,2.78
2022-08-07T12:17:19.911Z,2.80
2022-08-07T12:22:58.326Z,2.35
2022-08-07T12:28:09.022Z,2.00
2022-08-07T12:33:18.966Z,2.20
2022-08-07T12:38:30.574Z,1.98
2022-08-07T12:44:02.790Z,2.65
2022-08-07T12:48:55.956Z,2.20
2022-08-07T12:54:37.715Z,2.25
2022-08-07T12:59:30.501Z,2.25
2022-08-07T13:05:14.938Z,2.10
2022-08-07T13:10:51.410Z,1.70
2022-08-07T13:16:02.293Z,1.92
2022-08-07T13:21:07.138Z,2.38
2022-08-07T13:26:06.773Z,1.75
2022-08-07T13:31:18.259Z,1.90
2022-08-07T13:36:39.838Z,1.95
2022-08-07T13:41:50.431Z,2.10
2022-08-07T13:46:50.050Z,2.00
2022-08-07T13:52:05.535Z,2.00
2022-08-07T13:57:00.638Z,2.00
2022-08-07T14:02:10.414Z,2.63
2022-08-07T14:07:09.162Z,2.67
2022-08-07T14:12:10.256Z,2.67
2022-08-07T14:17:51.643Z,2.50
2022-08-07T14:22:33.978Z,2.85
2022-08-07T14:28:10.557Z,2.40
2022-08-07T14:33:04.737Z,2.63
2022-08-07T14:38:03.059Z,2.40
2022-08-07T14:43:58.159Z,2.30
2022-08-07T14:48:27.234Z,2.05
2022-08-07T14:54:05.739Z,1.98
2022-08-07T15:03:53.822Z,1.67
2022-08-07T15:08:54.736Z,2.00
2022-08-07T15:13:58.462Z,1.70
2022-08-07T15:19:06.091Z,1.95
2022-08-07T15:25:15.913Z,2.67
2022-08-07T15:30:09.146Z,2.30
2022-08-07T15:40:00.243Z,2.30
2022-08-07T15:44:54.520Z,2.30
2022-08-07T15:50:05.252Z,1.83
2022-08-07T15:55:02.245Z,2.28
2022-08-07T15:59:57.391Z,2.70
2022-08-07T16:05:01.817Z,1.95
2022-08-07T16:10:02.857Z,2.35
2022-08-07T16:15:01.112Z,2.50
2022-08-07T16:20:07.827Z,2.08
2022-08-07T16:25:25.023Z,2.72
2022-08-07T16:30:55.869Z,3.47
2022-08-07T16:36:19.719Z,2.10
2022-08-07T16:41:41.491Z,2.05
2022-08-07T16:52:50.926Z,2.30
2022-08-07T16:58:01.996Z,2.67
2022-08-07T17:03:58.406Z,2.22
2022-08-07T17:14:19.091Z,2.53
2022-08-07T17:20:02.158Z,2.78
2022-08-07T17:24:59.989Z,2.50
2022-08-07T17:30:18.420Z,2.78
2022-08-07T17:35:51.397Z,3.25
2022-08-07T17:42:01.030Z,2.97
2022-08-07T17:46:34.771Z,2.92
2022-08-07T17:51:49.338Z,2.72
2022-08-07T17:57:18.820Z,2.97
2022-08-07T18:02:36.023Z,3.50
2022-08-07T18:07:36.025Z,3.47
2022-08-07T18:12:34.599Z,3.40
2022-08-07T18:18:46.069Z,3.00
2022-08-07T18:23:35.211Z,2.97
2022-08-07T18:28:34.499Z,2.65
2022-08-07T18:33:38.504Z,2.95
2022-08-07T18:40:08.709Z,3.00
2022-08-07T18:44:31.552Z,3.15
2022-08-07T18:50:33.053Z,3.53
2022-08-07T18:55:40.597Z,4.25
2022-08-07T19:02:17.118Z,3.60
2022-08-07T19:06:54.649Z,3.67
2022-08-07T19:17:52.475Z,3.75
2022-08-07T19:22:44.849Z,4.85
2022-08-07T19:29:00.179Z,5.38
2022-08-07T19:32:59.664Z,4.60
2022-08-07T19:38:16.104Z,5.40
2022-08-07T19:43:45.046Z,5.20
2022-08-07T19:48:54.617Z,4.57
2022-08-07T19:54:37.191Z,4.95
2022-08-07T19:59:41.195Z,4.13
2022-08-07T20:04:39.845Z,4.15
2022-08-07T20:10:35.847Z,4.20
2022-08-07T20:14:54.071Z,4.68
2022-08-07T20:19:58.660Z,3.67
2022-08-07T20:25:06.334Z,4.22
2022-08-07T20:30:11.026Z,4.50
2022-08-07T20:35:12.004Z,5.18
2022-08-07T20:40:32.338Z,4.07
2022-08-07T20:45:33.457Z,3.55
2022-08-07T20:51:00.430Z,4.45
2022-08-07T20:55:59.577Z,4.88
2022-08-07T21:00:59.427Z,4.38
2022-08-07T21:06:21.452Z,4.65
2022-08-07T21:11:40.215Z,4.70
2022-08-07T21:18:01.014Z,4.13
2022-08-07T21:22:14.785Z,5.13
2022-08-07T21:27:39.780Z,3.95
2022-08-07T21:33:38.507Z,3.45
2022-08-07T21:38:59.318Z,3.75
2022-08-07T21:44:14.647Z,5.15
2022-08-07T21:49:31.209Z,4.30
2022-08-07T21:54:55.336Z,4.15
2022-08-07T22:00:04.287Z,5.07
2022-08-07T22:05:01.751Z,7.03
2022-08-07T22:10:01.510Z,7.13
2022-08-07T22:15:01.094Z,7.22
2022-08-07T22:20:23.378Z,8.32
2022-08-07T22:25:26.360Z,8.50
2022-08-07T22:30:26.479Z,8.50
2022-08-07T22:35:40.676Z,8.88
2022-08-07T22:40:43.234Z,7.65
2022-08-07T22:46:21.140Z,9.05
2022-08-07T22:51:17.081Z,10.82
2022-08-07T22:56:16.181Z,10.87
2022-08-07T23:01:49.451Z,10.48
2022-08-07T23:07:40.409Z,11.63
2022-08-07T23:12:50.942Z,9.45
2022-08-07T23:18:21.411Z,10.55
2022-08-07T23:24:06.821Z,9.25
2022-08-07T23:28:48.869Z,8.60
2022-08-07T23:34:36.923Z,9.00
2022-08-07T23:39:55.708Z,8.52
2022-08-07T23:45:15.362Z,8.55
2022-08-07T23:50:28.978Z,8.32
2022-08-07T23:55:53.499Z,8.07
